Chandler, Canada
Current Conditions -  °F | °C
As of 8:00 AM on Saturday 20 Dec 2014 (Local Time) from CYGP Reporting Station
Overcast Overcast  
Wind Chill: 23°   Ceiling: 1800
Heat Index: 23°   Visibility: 15mi
Dew Point: 19°   Wind: 3mph
Humidity: 86%   Direction: 50°NE
Pressure: 30.34"   Gusts: NA
Location:  48.33°N, 64.67°W
Report Text: CYGP 201300Z 05003KT 340V080 15SM OVC018 M05/M07 A3034 RMK SC8 SLP275
Loading
Personal Weather Stations






























Interactive Weather Map New forecast layout! Learn more

10-Day Weather Forecast

Advertisements
Track Severe Weather on mobile